Saint Just, Puerto Rico
Current Conditions -  °F | °C
As of 8:56 AM on Thursday 30 Oct 2014 (Local Time) from TJSJ Reporting Station
Scattered Clouds Scattered Clouds  
Wind Chill: 85°   Ceiling: Unl
Heat Index: 97°   Visibility: 10mi
Dew Point: 78°   Wind: 0mph
Humidity: 80%   Direction: NA
Pressure: 29.85"   Gusts: NA
Location:  18.37°N, 66.01°W
Report Text: TJSJ 301256Z 00000KT 10SM FEW028 SCT060 29/26 A2985 RMK AO2 RAE15 SLP108 P0000 T02940256
Loading
Personal Weather Stations






























Interactive Weather Map New forecast layout! Learn more

10-Day Weather Forecast

Advertisements
Track Severe Weather on mobile